Itasca, Illinois
Current Conditions -  °F | °C
As of 8:51 PM on Sunday 21 Dec 2014 (Local Time) from KORD Reporting Station
Overcast Overcast  
Wind Chill: 26°   Ceiling: 20000
Heat Index: 34°   Visibility: 10mi
Dew Point: 28°   Wind: 10mph
Humidity: 79%   Direction: 150°SSE
Pressure: 30.04"   Gusts: NA
Location:  41.97°N, 88.02°W
Report Text: KORD 220251Z 15009KT 10SM FEW029 SCT150 BKN200 OVC250 01/M02 A3004 RMK AO2 SLP178 T00111022 58013
Loading
Personal Weather Stations






























Interactive Weather Map New forecast layout! Learn more

10-Day Weather Forecast

Advertisements
Track Severe Weather on mobile